Terminal Aerodrome Forecast
Issued by NWS

Home | Current Version | Previous Version | Text Only | Print | Product List | Glossary Off
Versions: 1 2 3 4 5 6 7 8 9 10 11 12 13 14 15 16 17 18 19 20 21 22 23 24 25 26 27 28 29 30 31 32 33 34 35 36 37 38 39 40 41 42 43

000
FTUS43 KGLD 180901 AAA
TAFMCK
TAF AMD
KMCK 180901Z 1809/1906 10007KT 1/2SM FG OVC002
      TEMPO 1809/1812 3SM BR BKN007
     FM181200 11005KT 3SM BR OVC002
     FM181400 12008KT 5SM BR BKN002
     FM181500 15008KT P6SM BKN002
     FM181800 12008KT P6SM BKN010=

USA.gov is the U.S. government's official web portal to all federal, state and local government web resources and services.